createdAt,value
2023-05-08T00:00:08.344Z,3.35
2023-05-08T00:05:13.496Z,3.25
2023-05-08T00:10:17.466Z,3.28
2023-05-08T00:15:21.579Z,3.26
2023-05-08T00:20:27.243Z,3.15
2023-05-08T00:25:32.164Z,3.12
2023-05-08T00:30:36.481Z,3.09
2023-05-08T00:35:43.106Z,3.04
2023-05-08T00:40:46.994Z,2.99
2023-05-08T00:45:51.425Z,3.01
2023-05-08T00:50:56.915Z,2.96
2023-05-08T00:56:01.284Z,2.99
2023-05-08T01:01:06.036Z,2.98
2023-05-08T01:06:11.924Z,2.96
2023-05-08T01:11:22.816Z,2.90
2023-05-08T01:16:33.542Z,2.94
2023-05-08T01:21:46.788Z,2.92
2023-05-08T01:27:33.248Z,2.92
2023-05-08T01:32:42.984Z,3.02
2023-05-08T01:37:52.777Z,3.01
2023-05-08T01:43:04.933Z,3.09
2023-05-08T01:48:13.604Z,3.06
2023-05-08T01:53:24.042Z,2.91
2023-05-08T01:58:29.020Z,2.90
2023-05-08T02:03:36.085Z,2.82
2023-05-08T02:08:40.893Z,2.80
2023-05-08T02:13:46.380Z,2.76
2023-05-08T02:18:53.349Z,2.61
2023-05-08T02:23:58.513Z,2.48
2023-05-08T02:29:03.724Z,2.41
2023-05-08T02:34:10.672Z,2.27
2023-05-08T02:39:16.225Z,2.17
2023-05-08T02:44:20.693Z,2.13
2023-05-08T02:49:32.029Z,2.07
2023-05-08T02:54:43.418Z,2.12
2023-05-08T02:59:58.070Z,2.08
2023-05-08T03:05:11.291Z,2.03
2023-05-08T03:10:16.879Z,2.06
2023-05-08T03:15:26.924Z,2.02
2023-05-08T03:20:34.802Z,2.03
2023-05-08T03:25:41.073Z,2.03
2023-05-08T03:30:46.456Z,1.92
2023-05-08T03:35:54.752Z,1.91
2023-05-08T03:41:00.478Z,1.90
2023-05-08T03:46:06.299Z,2.01
2023-05-08T03:51:12.241Z,2.04
2023-05-08T03:56:17.650Z,2.08
2023-05-08T04:01:24.922Z,2.00
2023-05-08T04:06:48.594Z,2.05
2023-05-08T04:12:03.432Z,2.18
2023-05-08T04:17:10.988Z,2.29
2023-05-08T04:22:19.844Z,2.58
2023-05-08T04:27:24.721Z,2.69
2023-05-08T04:32:30.318Z,2.85
2023-05-08T04:37:37.148Z,2.95
2023-05-08T04:42:43.083Z,3.07
2023-05-08T04:47:47.670Z,3.27
2023-05-08T04:52:54.422Z,3.27
2023-05-08T04:57:58.871Z,3.26
2023-05-08T05:03:03.089Z,3.35
2023-05-08T05:08:09.181Z,3.39
2023-05-08T05:13:13.741Z,3.66
2023-05-08T05:18:18.277Z,3.92
2023-05-08T05:23:23.792Z,4.00
2023-05-08T05:28:28.157Z,4.10
2023-05-08T05:33:32.649Z,4.37
2023-05-08T05:38:38.434Z,4.46
2023-05-08T05:43:42.861Z,4.64
2023-05-08T05:48:46.979Z,4.63
2023-05-08T05:53:52.852Z,4.69
2023-05-08T05:58:57.214Z,4.64
2023-05-08T06:04:02.591Z,4.97
2023-05-08T06:09:08.634Z,5.40
2023-05-08T06:14:12.514Z,5.32
2023-05-08T06:19:17.042Z,5.58
2023-05-08T06:24:22.680Z,5.70
2023-05-08T06:29:26.731Z,5.93
2023-05-08T06:34:31.563Z,6.34
2023-05-08T06:39:36.884Z,6.27
2023-05-08T06:44:41.224Z,6.78
2023-05-08T06:49:45.292Z,6.62
2023-05-08T06:54:50.734Z,7.07
2023-05-08T06:59:54.831Z,7.28
2023-05-08T07:04:59.095Z,7.41
2023-05-08T07:10:07.255Z,7.55
2023-05-08T07:15:24.717Z,7.76
2023-05-08T07:20:30.017Z,8.22
2023-05-08T07:25:35.269Z,8.04
2023-05-08T07:30:39.056Z,7.76
2023-05-08T07:35:43.126Z,7.99
2023-05-08T07:40:49.016Z,8.15
2023-05-08T07:45:53.267Z,8.65
2023-05-08T07:50:57.728Z,8.72
2023-05-08T07:56:03.300Z,8.81
2023-05-08T08:01:07.153Z,9.07
2023-05-08T08:06:11.305Z,9.20
2023-05-08T08:11:17.188Z,9.27
2023-05-08T08:16:21.352Z,8.97
2023-05-08T08:21:25.284Z,8.91
2023-05-08T08:26:30.455Z,8.94
2023-05-08T08:31:34.412Z,8.92
2023-05-08T08:36:38.469Z,9.02
2023-05-08T08:41:43.692Z,9.84
2023-05-08T08:46:53.119Z,10.36
2023-05-08T08:51:59.756Z,10.30
2023-05-08T08:57:08.209Z,10.23
2023-05-08T09:02:17.901Z,10.00
2023-05-08T09:07:22.916Z,10.10
2023-05-08T09:12:29.011Z,10.54
2023-05-08T09:17:33.063Z,10.91
2023-05-08T09:22:38.053Z,11.55
2023-05-08T09:27:43.254Z,11.55
2023-05-08T09:32:50.002Z,11.53
2023-05-08T09:37:55.547Z,11.11
2023-05-08T09:43:13.602Z,11.46
2023-05-08T09:48:17.886Z,11.34
2023-05-08T09:53:31.951Z,11.98
2023-05-08T09:58:41.012Z,12.41
2023-05-08T10:03:49.435Z,12.59
2023-05-08T10:09:08.101Z,12.85
2023-05-08T10:14:13.827Z,12.85
2023-05-08T10:19:19.873Z,12.31
2023-05-08T10:24:28.600Z,11.92
2023-05-08T10:29:42.386Z,12.24
2023-05-08T10:34:48.057Z,11.87
2023-05-08T10:39:53.311Z,11.98
2023-05-08T10:44:59.111Z,12.86
2023-05-08T10:50:07.111Z,12.75
2023-05-08T10:55:20.461Z,12.68
2023-05-08T11:00:25.882Z,12.05
2023-05-08T11:05:29.950Z,12.92
2023-05-08T11:10:37.294Z,12.71
2023-05-08T11:15:43.334Z,13.35
2023-05-08T11:20:57.472Z,13.08
2023-05-08T11:26:02.929Z,13.31
2023-05-08T11:31:09.466Z,14.10
2023-05-08T11:36:14.340Z,14.33
2023-05-08T11:41:22.702Z,14.23
2023-05-08T11:46:39.164Z,13.52
2023-05-08T11:51:46.916Z,14.40
2023-05-08T11:56:52.096Z,14.91
2023-05-08T12:02:07.795Z,14.26
2023-05-08T12:07:13.522Z,15.00
2023-05-08T12:12:17.606Z,14.04
2023-05-08T12:17:23.743Z,13.55
2023-05-08T12:22:28.044Z,14.41
2023-05-08T12:27:32.110Z,15.56
2023-05-08T12:32:38.062Z,15.64
2023-05-08T12:37:41.952Z,16.71
2023-05-08T12:42:47.013Z,16.44
2023-05-08T12:47:54.316Z,16.79
2023-05-08T12:53:04.043Z,16.15
2023-05-08T12:58:14.695Z,16.72
2023-05-08T13:03:25.983Z,17.19
2023-05-08T13:08:34.129Z,16.64
2023-05-08T13:13:38.516Z,16.26
2023-05-08T13:18:44.599Z,17.46
2023-05-08T13:23:49.070Z,18.85
2023-05-08T13:28:55.992Z,18.92
2023-05-08T13:34:02.034Z,16.57
2023-05-08T13:39:06.320Z,16.01
2023-05-08T13:44:10.363Z,17.45
2023-05-08T13:49:15.767Z,16.62
2023-05-08T13:54:19.781Z,15.70
2023-05-08T13:59:23.996Z,15.16
2023-05-08T14:04:29.423Z,14.88
2023-05-08T14:09:33.679Z,14.29
2023-05-08T14:14:37.465Z,14.10
2023-05-08T14:19:42.787Z,15.45
2023-05-08T14:24:47.225Z,16.52
2023-05-08T14:29:53.521Z,14.87
2023-05-08T14:34:59.162Z,14.36
2023-05-08T14:40:04.111Z,15.92
2023-05-08T14:45:09.450Z,16.25
2023-05-08T14:50:14.973Z,17.55
2023-05-08T15:00:44.884Z,15.38
2023-05-08T15:05:50.356Z,15.54
2023-05-08T15:10:54.440Z,16.09
2023-05-08T15:15:59.438Z,16.45
2023-05-08T15:21:05.920Z,17.26
2023-05-08T15:26:10.087Z,15.83
2023-05-08T15:31:14.380Z,14.54
2023-05-08T15:36:19.611Z,13.99
2023-05-08T15:41:23.746Z,14.76
2023-05-08T15:46:27.749Z,14.57
2023-05-08T15:51:33.470Z,14.35
2023-05-08T15:56:37.545Z,13.99
2023-05-08T16:01:41.940Z,13.35
2023-05-08T16:06:47.644Z,13.04
2023-05-08T16:11:51.700Z,12.98
2023-05-08T16:16:55.581Z,12.92
2023-05-08T16:22:00.973Z,13.13
2023-05-08T16:27:05.252Z,13.27
2023-05-08T16:32:09.479Z,13.25
2023-05-08T16:37:14.705Z,12.72
2023-05-08T16:42:18.831Z,12.43
2023-05-08T16:47:22.672Z,12.13
2023-05-08T16:52:28.463Z,11.97
2023-05-08T16:57:32.866Z,11.90
2023-05-08T17:02:37.261Z,11.80
2023-05-08T17:07:42.483Z,11.77
2023-05-08T17:12:46.353Z,11.81
2023-05-08T17:17:50.681Z,11.80
2023-05-08T17:22:56.682Z,11.63
2023-05-08T17:28:01.538Z,11.39
2023-05-08T17:33:05.919Z,11.18
2023-05-08T17:38:11.511Z,11.05
2023-05-08T17:43:15.594Z,10.81
2023-05-08T17:48:19.765Z,10.75
2023-05-08T17:53:25.247Z,10.67
2023-05-08T17:58:29.473Z,10.50
2023-05-08T18:03:33.429Z,10.40
2023-05-08T18:08:40.800Z,10.30
2023-05-08T18:13:46.253Z,10.04
2023-05-08T18:18:50.822Z,9.85
2023-05-08T18:23:56.702Z,9.63
2023-05-08T18:29:01.102Z,9.50
2023-05-08T18:34:05.385Z,9.14
2023-05-08T18:39:11.014Z,8.94
2023-05-08T18:44:15.414Z,8.71
2023-05-08T18:49:19.655Z,8.61
2023-05-08T18:54:26.996Z,8.37
2023-05-08T18:59:31.058Z,8.24
2023-05-08T19:04:35.155Z,8.08
2023-05-08T19:09:40.622Z,7.84
2023-05-08T19:14:44.647Z,7.90
2023-05-08T19:19:51.456Z,7.90
2023-05-08T19:24:57.112Z,7.74
2023-05-08T19:30:01.148Z,7.70
2023-05-08T19:35:05.934Z,7.45
2023-05-08T19:40:12.836Z,7.38
2023-05-08T19:45:17.216Z,7.33
2023-05-08T19:50:21.923Z,7.11
2023-05-08T19:55:27.384Z,6.98
2023-05-08T20:00:31.467Z,6.62
2023-05-08T20:05:35.588Z,6.52
2023-05-08T20:10:41.172Z,6.45
2023-05-08T20:15:45.492Z,6.65
2023-05-08T20:20:49.583Z,6.74
2023-05-08T20:25:55.229Z,6.51
2023-05-08T20:30:59.493Z,6.41
2023-05-08T20:36:03.378Z,6.26
2023-05-08T20:41:08.866Z,6.18
2023-05-08T20:46:12.937Z,6.15
2023-05-08T20:51:16.758Z,6.04
2023-05-08T20:56:22.773Z,6.07
2023-05-08T21:01:26.946Z,6.05
2023-05-08T21:06:30.933Z,5.93
2023-05-08T21:11:36.461Z,5.93
2023-05-08T21:16:40.656Z,5.91
2023-05-08T21:21:44.922Z,5.88
2023-05-08T21:26:50.968Z,5.98
2023-05-08T21:31:55.141Z,6.03
2023-05-08T21:36:59.356Z,6.07
2023-05-08T21:42:04.854Z,6.07
2023-05-08T21:47:08.919Z,6.05
2023-05-08T21:52:13.037Z,5.95
2023-05-08T21:57:18.331Z,5.78
2023-05-08T22:02:22.626Z,5.82
2023-05-08T22:07:26.724Z,5.78
2023-05-08T22:12:31.970Z,5.76
2023-05-08T22:17:36.055Z,5.74
2023-05-08T22:22:40.256Z,5.74
2023-05-08T22:27:46.346Z,5.77
2023-05-08T22:32:55.336Z,5.77
2023-05-08T22:37:59.936Z,5.70
2023-05-08T22:43:05.650Z,5.65
2023-05-08T22:48:10.486Z,5.55
2023-05-08T22:53:14.698Z,5.56
2023-05-08T22:58:20.134Z,5.53
2023-05-08T23:03:24.279Z,5.47
2023-05-08T23:08:28.347Z,5.47
2023-05-08T23:13:34.387Z,5.46
2023-05-08T23:18:38.830Z,5.40
2023-05-08T23:23:42.886Z,5.40
2023-05-08T23:28:48.745Z,5.36
2023-05-08T23:33:52.799Z,5.37
2023-05-08T23:38:57.012Z,5.31
2023-05-08T23:44:02.458Z,5.26
2023-05-08T23:49:06.750Z,5.26
2023-05-08T23:54:10.832Z,5.14
2023-05-08T23:59:16.334Z,5.14
